Time;durP1;ratioP1;P1;durP2;ratioP2;P2;SDS_P1;SDS_P2;PMS_P1;PMS_P2;Temp;Humidity;BMP_temperature;BMP_pressure;BME280_temperature;BME280_humidity;BME280_pressure;Samples;Min_cycle;Max_cycle;Signal;HPM_P1;HPM_P2
2022/04/14 00:01:42;;;;;;;9.18;7.40;;;;;;;7.93;54.14;95259.59;5059407;28;20204;-71
2022/04/14 00:04:09;;;;;;;9.55;7.72;;;;;;;7.99;54.48;95272.00;5076715;28;20233;-72
2022/04/14 00:06:36;;;;;;;9.98;7.75;;;;;;;7.95;53.36;95271.03;5059269;28;20232;-71
2022/04/14 00:09:03;;;;;;;9.98;7.20;;;;;;;7.80;53.69;95264.16;5075857;28;20201;-71
2022/04/14 00:11:30;;;;;;;8.32;7.53;;;;;;;7.74;53.70;95267.44;5076741;28;20217;-71
2022/04/14 00:13:59;;;;;;;8.00;7.20;;;;;;;7.63;53.76;95267.00;5059041;28;20223;-71
2022/04/14 00:16:26;;;;;;;9.52;7.68;;;;;;;7.60;54.38;95264.91;5059136;28;20193;-72
2022/04/14 00:18:54;;;;;;;10.40;8.90;;;;;;;7.53;53.96;95261.88;5058579;28;20193;-72
2022/04/14 00:21:21;;;;;;;9.52;8.43;;;;;;;7.53;54.23;95259.13;5059423;28;20203;-71
2022/04/14 00:23:48;;;;;;;9.48;7.90;;;;;;;7.56;54.28;95263.97;5076262;28;20217;-71
2022/04/14 00:26:15;;;;;;;10.23;8.32;;;;;;;7.62;54.24;95268.13;5058953;28;20197;-71
2022/04/14 00:28:42;;;;;;;9.77;7.85;;;;;;;7.57;54.15;95262.81;5076260;28;20182;-71
2022/04/14 00:31:10;;;;;;;9.43;8.38;;;;;;;7.43;54.86;95271.25;5059009;28;20219;-71
2022/04/14 00:33:38;;;;;;;10.40;8.30;;;;;;;7.34;54.83;95274.03;5076061;28;20244;-71
2022/04/14 00:36:05;;;;;;;8.65;7.82;;;;;;;7.37;55.16;95269.81;5058782;28;20232;-72
2022/04/14 00:38:32;;;;;;;8.77;7.90;;;;;;;7.30;55.44;95266.75;5058543;28;20205;-71
2022/04/14 00:40:59;;;;;;;10.98;8.00;;;;;;;7.29;55.61;95267.91;5058143;28;20220;-73
2022/04/14 00:43:31;;;;;;;8.75;7.75;;;;;;;7.18;55.78;95279.22;5076170;28;20274;-72
2022/04/14 00:45:59;;;;;;;9.45;7.40;;;;;;;7.16;55.99;95278.75;5075977;28;20211;-72
2022/04/14 00:48:28;;;;;;;9.32;7.38;;;;;;;7.21;55.52;95275.81;5075585;28;20182;-71
2022/04/14 00:50:55;;;;;;;8.50;7.50;;;;;;;7.26;55.91;95274.03;5075568;28;20627;-71
2022/04/14 00:53:23;;;;;;;7.53;6.75;;;;;;;7.32;55.90;95278.22;5075698;28;20298;-71
2022/04/14 00:55:50;;;;;;;7.57;6.70;;;;;;;7.38;55.76;95275.00;5057894;28;20226;-71
2022/04/14 00:58:17;;;;;;;8.90;6.75;;;;;;;7.42;55.41;95272.41;5058126;28;20204;-71
2022/04/14 01:00:44;;;;;;;9.25;6.90;;;;;;;7.45;55.29;95267.06;5075917;28;20203;-71
2022/04/14 01:03:11;;;;;;;7.85;6.70;;;;;;;7.48;55.54;95274.63;5058731;28;20205;-71
2022/04/14 01:05:40;;;;;;;8.98;7.13;;;;;;;7.40;55.68;95272.72;5038932;28;20233;-71
2022/04/14 01:08:08;;;;;;;9.90;7.22;;;;;;;7.32;55.83;95279.03;5038330;28;20213;-71
2022/04/14 01:10:35;;;;;;;7.82;7.03;;;;;;;7.23;54.89;95279.06;5054699;28;20589;-71
2022/04/14 01:13:02;;;;;;;8.50;7.07;;;;;;;7.06;54.72;95281.84;5038409;28;20268;-71
2022/04/14 01:15:29;;;;;;;7.63;6.93;;;;;;;6.92;55.01;95275.72;5037637;28;20605;-71
2022/04/14 01:17:56;;;;;;;7.65;6.82;;;;;;;6.93;55.91;95283.63;5055470;28;20192;-72
2022/04/14 01:20:24;;;;;;;8.35;7.22;;;;;;;6.93;55.78;95280.88;5037771;28;20236;-72
2022/04/14 01:22:56;;;;;;;8.98;7.30;;;;;;;6.98;56.15;95282.66;5037858;28;20307;-71
2022/04/14 01:25:26;;;;;;;8.00;7.20;;;;;;;7.03;56.34;95282.47;5038097;28;20255;-71
2022/04/14 01:27:53;;;;;;;10.93;7.80;;;;;;;7.01;56.26;95279.28;5055291;28;20186;-72
2022/04/14 01:30:20;;;;;;;8.95;7.32;;;;;;;7.01;56.17;95282.03;5054132;28;20595;-71
2022/04/14 01:32:47;;;;;;;8.18;7.30;;;;;;;6.96;56.44;95282.97;5055163;28;20192;-72
2022/04/14 01:35:14;;;;;;;7.82;6.82;;;;;;;6.81;55.65;95291.69;5055158;28;20209;-71
2022/04/14 01:37:41;;;;;;;11.13;7.20;;;;;;;6.66;55.63;95287.50;5054383;28;20665;-71
2022/04/14 01:40:10;;;;;;;8.45;7.10;;;;;;;6.60;56.14;95285.25;5037971;28;20201;-71
2022/04/14 01:42:39;;;;;;;11.60;7.35;;;;;;;6.56;55.98;95278.81;5037318;28;20190;-71
2022/04/14 01:45:07;;;;;;;9.38;7.50;;;;;;;6.56;56.35;95278.81;5037818;28;20190;-71
2022/04/14 01:47:39;;;;;;;10.02;7.20;;;;;;;6.56;56.81;95282.34;5037516;28;20597;-71
2022/04/14 01:50:08;;;;;;;10.43;7.65;;;;;;;6.56;57.38;95276.88;5055067;28;20197;-71
2022/04/14 01:52:35;;;;;;;9.98;7.32;;;;;;;6.65;57.92;95287.84;5055058;28;20190;-71
2022/04/14 01:55:02;;;;;;;9.88;7.85;;;;;;;6.72;56.92;95288.97;5054733;28;20238;-71
2022/04/14 01:57:29;;;;;;;11.82;7.80;;;;;;;6.70;56.92;95285.72;5054899;28;20217;-71
2022/04/14 01:59:58;;;;;;;10.23;7.43;;;;;;;6.58;56.58;95293.81;5053955;28;20208;-72
2022/04/14 02:02:26;;;;;;;9.95;8.10;;;;;;;6.49;57.27;95301.19;5041203;28;20201;-71
2022/04/14 02:04:53;;;;;;;11.40;8.35;;;;;;;6.46;57.26;95301.84;5041097;28;20261;-72
2022/04/14 02:07:20;;;;;;;8.82;7.85;;;;;;;6.38;57.12;95306.19;5041068;28;20198;-72
2022/04/14 02:09:47;;;;;;;9.88;7.50;;;;;;;6.37;57.06;95303.78;5041595;28;20268;-72
2022/04/14 02:12:14;;;;;;;12.02;8.50;;;;;;;6.40;57.43;95308.63;5058854;28;20196;-71
2022/04/14 02:14:41;;;;;;;14.13;10.30;;;;;;;6.33;57.16;95309.09;5058671;28;20304;-71
2022/04/14 02:17:10;;;;;;;12.07;9.57;;;;;;;6.22;57.20;95305.03;5041421;28;20264;-71
2022/04/14 02:19:38;;;;;;;11.85;9.55;;;;;;;6.12;57.69;95303.41;5058731;28;20244;-71
2022/04/14 02:22:05;;;;;;;14.80;9.60;;;;;;;6.17;57.75;95297.78;5058009;28;20194;-71
2022/04/14 02:24:32;;;;;;;10.82;9.18;;;;;;;6.21;58.30;95292.47;5058302;28;20257;-72
2022/04/14 02:26:59;;;;;;;11.85;9.40;;;;;;;6.27;57.89;95291.97;5058551;28;20557;-72
2022/04/14 02:29:26;;;;;;;10.30;9.20;;;;;;;6.27;58.14;95294.72;5058464;28;20186;-72
2022/04/14 02:31:57;;;;;;;10.13;9.07;;;;;;;6.30;58.34;95287.00;5058145;28;20214;-71
2022/04/14 02:34:26;;;;;;;12.88;9.20;;;;;;;6.26;58.41;95284.91;5058481;28;20245;-71
2022/04/14 02:36:53;;;;;;;14.05;10.35;;;;;;;6.16;58.24;95284.41;5058314;28;20196;-71
2022/04/14 02:39:20;;;;;;;15.27;10.88;;;;;;;6.12;58.54;95289.72;5041164;28;20297;-73
2022/04/14 02:41:47;;;;;;;14.77;9.75;;;;;;;6.16;58.28;95284.41;5058143;28;20204;-72
2022/04/14 02:44:13;;;;;;;12.95;9.60;;;;;;;6.21;58.71;95287.81;5057557;28;20225;-72
2022/04/14 02:46:40;;;;;;;14.25;10.02;;;;;;;6.23;58.49;95287.47;5057226;28;20212;-72
2022/04/14 02:49:07;;;;;;;17.23;10.68;;;;;;;6.15;58.12;95296.50;5041592;28;20237;-72
2022/04/14 02:51:36;;;;;;;15.10;10.80;;;;;;;6.07;58.58;95300.81;5040730;28;20234;-70
2022/04/14 02:54:02;;;;;;;15.23;10.60;;;;;;;6.07;58.69;95295.34;5057873;28;20325;-71
2022/04/14 02:56:29;;;;;;;15.60;9.50;;;;;;;6.12;58.58;95305.34;5040587;28;20198;-71
2022/04/14 02:58:56;;;;;;;12.15;9.18;;;;;;;6.20;58.28;95304.53;5057944;28;20192;-71
2022/04/14 03:01:23;;;;;;;11.23;9.15;;;;;;;6.25;58.25;95307.16;5041277;28;20229;-71
2022/04/14 03:03:51;;;;;;;11.55;8.93;;;;;;;6.28;58.01;95301.00;5061774;28;20260;-71
2022/04/14 03:06:18;;;;;;;10.68;9.63;;;;;;;6.25;57.66;95302.47;5060298;28;20251;-71
2022/04/14 03:08:46;;;;;;;14.43;10.32;;;;;;;6.27;57.71;95304.88;5077573;28;20613;-71
2022/04/14 03:11:14;;;;;;;11.07;9.35;;;;;;;6.25;57.25;95302.47;5078037;28;20600;-71
2022/04/14 03:13:42;;;;;;;12.23;9.32;;;;;;;6.24;57.41;95306.31;5078155;28;20535;-70
2022/04/14 03:16:09;;;;;;;13.45;9.85;;;;;;;6.24;57.77;95302.78;5077866;28;20243;-71
2022/04/14 03:18:35;;;;;;;10.57;9.20;;;;;;;6.25;57.76;95305.22;5077662;28;20181;-71
2022/04/14 03:21:03;;;;;;;11.20;9.67;;;;;;;6.26;58.04;95300.53;5077542;28;20193;-71
2022/04/14 03:23:30;;;;;;;12.02;10.27;;;;;;;6.20;57.92;95304.53;5059999;28;20292;-70
2022/04/14 03:25:58;;;;;;;14.95;11.40;;;;;;;6.08;57.49;95316.13;5077242;28;20643;-70
2022/04/14 03:28:25;;;;;;;15.98;10.95;;;;;;;5.90;57.08;95307.03;5059995;28;20208;-72
2022/04/14 03:30:52;;;;;;;14.75;10.52;;;;;;;5.68;57.70;95307.91;5077395;28;20205;-70
2022/04/14 03:33:19;;;;;;;14.57;10.82;;;;;;;5.55;58.02;95309.63;5077035;28;20208;-70
2022/04/14 03:35:46;;;;;;;15.63;11.38;;;;;;;5.44;58.03;95316.47;5077328;28;20258;-71
2022/04/14 03:38:13;;;;;;;13.68;12.20;;;;;;;5.44;58.92;95316.47;5077364;28;20196;-70
2022/04/14 03:40:40;;;;;;;14.95;10.82;;;;;;;5.51;58.89;95321.50;5077567;28;20185;-71
2022/04/14 03:43:09;;;;;;;18.30;11.40;;;;;;;5.54;58.96;95316.22;5077426;28;20221;-71
2022/04/14 03:45:36;;;;;;;14.13;9.43;;;;;;;5.59;58.84;95328.13;5049590;28;20217;-72
2022/04/14 03:48:03;;;;;;;14.27;9.75;;;;;;;5.64;59.03;95319.81;5052329;28;20265;-70
2022/04/14 03:50:30;;;;;;;12.10;9.30;;;;;;;5.70;58.64;95326.72;5076040;28;20474;-71
2022/04/14 03:52:57;;;;;;;10.25;8.60;;;;;;;5.72;58.40;95335.44;5059957;28;20228;-72
2022/04/14 03:55:25;;;;;;;11.45;8.48;;;;;;;5.75;58.31;95324.69;5077075;28;20223;-71
2022/04/14 03:57:53;;;;;;;11.68;9.63;;;;;;;5.77;57.63;95321.63;5059645;28;20205;-72
2022/04/14 04:00:21;;;;;;;12.27;9.57;;;;;;;5.78;58.34;95324.06;5059867;28;20568;-72
2022/04/14 04:02:49;;;;;;;15.50;10.70;;;;;;;5.71;58.65;95340.13;5059023;28;20292;-72
2022/04/14 04:05:16;;;;;;;21.35;11.93;;;;;;;5.60;58.50;95333.31;5059101;28;20264;-71
2022/04/14 04:07:43;;;;;;;18.48;13.73;;;;;;;5.53;58.02;95332.94;5059588;28;20270;-72
2022/04/14 04:10:10;;;;;;;19.45;14.32;;;;;;;5.43;58.09;95333.22;5076549;28;20242;-72
2022/04/14 04:12:41;;;;;;;20.55;14.15;;;;;;;5.30;57.96;95334.91;5058721;28;20193;-72
2022/04/14 04:15:11;;;;;;;19.15;13.73;;;;;;;5.23;58.09;95337.28;5058633;28;20213;-72
2022/04/14 04:17:41;;;;;;;24.00;14.80;;;;;;;5.16;58.59;95342.41;5059256;28;20240;-72
2022/04/14 04:20:10;;;;;;;22.05;15.82;;;;;;;5.13;59.40;95340.28;5059283;28;20305;-72
2022/04/14 04:22:38;;;;;;;20.67;14.02;;;;;;;5.22;59.28;95331.00;5076040;28;20546;-72
2022/04/14 04:25:08;;;;;;;18.52;13.52;;;;;;;5.31;59.26;95333.81;5058192;28;20258;-72
2022/04/14 04:27:36;;;;;;;18.40;12.05;;;;;;;5.41;59.39;95336.28;5076260;28;20213;-72
2022/04/14 04:30:05;;;;;;;15.68;11.93;;;;;;;5.47;59.45;95334.19;5059001;28;20189;-72
2022/04/14 04:32:34;;;;;;;21.50;13.80;;;;;;;5.52;59.45;95351.31;5075845;28;20196;-71
2022/04/14 04:35:04;;;;;;;23.90;14.00;;;;;;;5.53;59.08;95352.09;5076095;28;20197;-71
2022/04/14 04:37:33;;;;;;;23.15;13.82;;;;;;;5.45;59.53;95350.94;5058728;28;20240;-71
2022/04/14 04:40:00;;;;;;;23.27;14.40;;;;;;;5.48;59.05;95357.69;5058938;28;20209;-71
2022/04/14 04:42:27;;;;;;;24.80;13.70;;;;;;;5.52;59.84;95356.78;5076121;28;20185;-71
2022/04/14 04:44:54;;;;;;;26.20;13.55;;;;;;;5.52;59.66;95364.19;5058603;28;20255;-71
2022/04/14 04:47:21;;;;;;;18.95;12.25;;;;;;;5.58;60.08;95370.31;5075654;28;20627;-71
2022/04/14 04:49:48;;;;;;;19.33;11.73;;;;;;;5.65;59.62;95382.41;5075933;28;20232;-71
2022/04/14 04:52:17;;;;;;;17.25;12.05;;;;;;;5.67;58.90;95384.84;5075863;28;20571;-71
2022/04/14 04:54:44;;;;;;;21.13;11.45;;;;;;;5.72;59.43;95382.78;5058189;28;20217;-72
2022/04/14 04:57:12;;;;;;;19.55;11.70;;;;;;;5.85;59.77;95385.75;5058283;28;20185;-72
2022/04/14 04:59:41;;;;;;;21.13;12.18;;;;;;;5.88;58.98;95393.31;5058424;28;20224;-72
2022/04/14 05:02:09;;;;;;;18.38;14.02;;;;;;;5.90;58.21;95396.56;5075606;28;20197;-71
2022/04/14 05:04:37;;;;;;;23.60;15.85;;;;;;;5.98;58.24;95395.81;5075791;28;20245;-71
2022/04/14 05:07:06;;;;;;;27.85;16.95;;;;;;;6.08;57.81;95397.47;5075565;28;20185;-71
2022/04/14 05:09:35;;;;;;;24.65;17.90;;;;;;;6.14;57.57;95402.50;5058120;28;20232;-71
2022/04/14 05:12:04;;;;;;;19.95;17.55;;;;;;;6.23;57.70;95405.25;5058078;28;20201;-71
2022/04/14 05:14:33;;;;;;;18.60;15.95;;;;;;;6.29;56.65;95395.78;5057299;28;20232;-71
2022/04/14 05:17:01;;;;;;;17.23;15.50;;;;;;;6.35;56.35;95402.72;5058132;28;20217;-71
2022/04/14 05:19:29;;;;;;;18.77;16.77;;;;;;;6.40;56.35;95408.06;5075410;28;20219;-71
2022/04/14 05:22:01;;;;;;;20.60;15.57;;;;;;;6.42;56.77;95405.78;5057886;28;20204;-72
2022/04/14 05:24:30;;;;;;;17.13;14.95;;;;;;;6.42;56.85;95413.22;5057766;28;20219;-72
2022/04/14 05:26:59;;;;;;;16.23;14.30;;;;;;;6.44;55.77;95408.22;5057566;28;20200;-72
2022/04/14 05:29:28;;;;;;;16.88;13.75;;;;;;;6.48;55.65;95410.00;5074963;28;20636;-72
2022/04/14 05:31:56;;;;;;;17.40;14.00;;;;;;;6.55;56.27;95409.53;5075090;28;20213;-72
2022/04/14 05:34:23;;;;;;;14.75;12.27;;;;;;;6.55;56.25;95406.81;5057479;28;20207;-72
2022/04/14 05:36:52;;;;;;;9.82;8.50;;;;;;;6.60;55.73;95401.16;5056773;28;20247;-72
2022/04/14 05:39:20;;;;;;;11.00;8.45;;;;;;;6.65;54.79;95412.00;5074803;28;20185;-72
2022/04/14 05:41:47;;;;;;;8.75;7.95;;;;;;;6.75;54.33;95421.81;5057872;28;20243;-72
2022/04/14 05:44:18;;;;;;;9.90;7.85;;;;;;;6.82;55.13;95410.38;5075060;28;20265;-72
2022/04/14 05:46:46;;;;;;;9.70;8.00;;;;;;;6.87;55.20;95418.47;5057054;28;20263;-72
2022/04/14 05:49:15;;;;;;;12.70;8.80;;;;;;;6.91;55.11;95420.25;5074821;28;20204;-72
2022/04/14 05:51:43;;;;;;;9.55;8.38;;;;;;;6.98;54.82;95417.84;5074902;28;20200;-71
2022/04/14 05:54:11;;;;;;;10.05;8.05;;;;;;;7.07;54.78;95420.56;5057432;28;20207;-71
2022/04/14 05:56:39;;;;;;;10.23;8.05;;;;;;;7.12;54.43;95425.13;5057406;28;20249;-71
2022/04/14 05:59:15;;;;;;;9.13;8.13;;;;;;;7.18;54.80;95421.06;5075048;28;20196;-71
2022/04/14 06:01:45;;;;;;;9.63;7.88;;;;;;;7.24;54.42;95423.34;5057408;28;20228;-71
2022/04/14 06:04:13;;;;;;;9.98;7.85;;;;;;;7.28;54.46;95420.75;5053010;28;20264;-71
2022/04/14 06:06:42;;;;;;;9.80;7.93;;;;;;;7.34;54.02;95424.16;5037544;28;20266;-71
2022/04/14 06:09:12;;;;;;;8.50;7.55;;;;;;;7.40;53.35;95420.09;5037414;28;20205;-71
2022/04/14 06:11:39;;;;;;;8.88;7.70;;;;;;;7.44;53.46;95424.63;5054374;28;20202;-71
2022/04/14 06:14:07;;;;;;;9.75;7.95;;;;;;;7.47;53.24;95426.69;5054697;28;20202;-71
2022/04/14 06:16:34;;;;;;;10.00;7.72;;;;;;;7.52;53.13;95425.75;5053476;28;20317;-71
2022/04/14 06:19:03;;;;;;;9.23;7.28;;;;;;;7.55;52.97;95425.06;5037508;28;20297;-71
2022/04/14 06:21:30;;;;;;;9.07;7.88;;;;;;;7.63;51.84;95431.72;5054906;28;20182;-71
2022/04/14 06:23:57;;;;;;;8.88;7.97;;;;;;;7.75;51.58;95425.53;5054894;28;20228;-72
2022/04/14 06:26:24;;;;;;;10.00;8.45;;;;;;;7.82;51.77;95429.41;5037208;28;20609;-72
2022/04/14 06:28:51;;;;;;;12.15;8.60;;;;;;;7.87;52.03;95426.47;5054591;28;20197;-72
2022/04/14 06:31:18;;;;;;;10.80;9.27;;;;;;;7.92;51.25;95426.31;5054676;28;20217;-72
2022/04/14 06:33:45;;;;;;;11.13;9.95;;;;;;;8.07;51.04;95432.41;5037099;28;20292;-71
2022/04/14 06:36:14;;;;;;;12.30;9.05;;;;;;;8.19;51.01;95432.53;5054265;28;20632;-71
2022/04/14 06:38:41;;;;;;;17.17;9.52;;;;;;;8.32;50.22;95431.53;5054768;28;20264;-71
2022/04/14 06:41:08;;;;;;;12.43;8.90;;;;;;;8.42;50.71;95427.59;5053448;28;20212;-71
2022/04/14 06:43:35;;;;;;;9.68;8.68;;;;;;;8.48;49.31;95422.75;5029097;28;20209;-71
2022/04/14 06:46:03;;;;;;;9.18;8.27;;;;;;;8.51;49.20;95431.13;5054638;28;20629;-72
2022/04/14 06:48:31;;;;;;;9.02;7.93;;;;;;;8.54;48.40;95429.69;5058038;28;20501;-71
2022/04/14 06:50:58;;;;;;;9.85;8.43;;;;;;;8.56;49.04;95427.38;5040799;28;20194;-71
2022/04/14 06:53:27;;;;;;;9.45;8.40;;;;;;;8.60;48.97;95422.84;5057412;28;20247;-71
2022/04/14 06:55:53;;;;;;;10.23;9.23;;;;;;;8.69;49.67;95429.09;5057846;28;20217;-71
2022/04/14 06:58:20;;;;;;;11.38;8.73;;;;;;;8.79;48.86;95433.44;5040847;28;20323;-71
2022/04/14 07:00:47;;;;;;;11.25;9.32;;;;;;;8.82;49.02;95433.56;5056996;28;20209;-71
2022/04/14 07:03:14;;;;;;;9.63;8.48;;;;;;;8.89;48.79;95435.78;5057947;28;20185;-71
2022/04/14 07:05:41;;;;;;;11.32;9.40;;;;;;;8.96;48.89;95444.31;5040185;28;20233;-71
2022/04/14 07:08:08;;;;;;;13.68;9.30;;;;;;;9.01;47.90;95440.56;5040593;28;20271;-71
2022/04/14 07:10:36;;;;;;;11.73;8.75;;;;;;;9.07;48.50;95437.28;5056626;28;20600;-71
2022/04/14 07:13:04;;;;;;;10.07;9.05;;;;;;;9.13;48.00;95443.41;5040325;28;20260;-71
2022/04/14 07:15:31;;;;;;;10.90;8.40;;;;;;;9.16;47.74;95442.72;5057605;28;20209;-71
2022/04/14 07:17:57;;;;;;;13.25;8.98;;;;;;;9.22;48.03;95446.06;5039935;28;20229;-71
2022/04/14 07:20:29;;;;;;;10.55;9.55;;;;;;;9.28;47.50;95437.28;5057597;28;20209;-71
2022/04/14 07:22:58;;;;;;;11.38;10.25;;;;;;;9.39;47.96;95438.50;5040123;28;20196;-71
2022/04/14 07:25:25;;;;;;;13.02;11.70;;;;;;;9.49;47.71;95444.75;5057541;28;20186;-71
2022/04/14 07:27:54;;;;;;;11.10;9.40;;;;;;;9.57;47.45;95438.34;5039914;28;20225;-72
2022/04/14 07:30:21;;;;;;;11.15;9.00;;;;;;;9.61;46.48;95429.06;5039897;28;20205;-71
2022/04/14 07:32:48;;;;;;;8.90;8.05;;;;;;;9.69;47.30;95435.63;5057018;28;20247;-71
2022/04/14 07:35:15;;;;;;;11.88;8.50;;;;;;;9.76;46.45;95433.16;5040131;28;20205;-71
2022/04/14 07:37:44;;;;;;;9.73;8.73;;;;;;;9.82;46.39;95431.78;5057096;28;20582;-71
2022/04/14 07:40:11;;;;;;;12.50;9.43;;;;;;;9.90;46.36;95430.09;5056942;28;20272;-71
2022/04/14 07:42:39;;;;;;;13.50;9.38;;;;;;;10.03;46.52;95423.50;5039350;28;20193;-71
2022/04/14 07:45:09;;;;;;;9.15;8.13;;;;;;;10.15;46.68;95413.63;5056986;28;20197;-71
2022/04/14 07:47:36;;;;;;;9.93;8.73;;;;;;;10.21;46.16;95421.34;5057065;28;20178;-74
2022/04/14 07:50:04;;;;;;;9.55;8.35;;;;;;;10.33;45.76;95418.63;5039320;28;20205;-71
2022/04/14 07:52:31;;;;;;;11.77;8.27;;;;;;;10.41;45.41;95422.41;5039549;28;20590;-71
2022/04/14 07:54:58;;;;;;;11.23;8.38;;;;;;;10.52;46.57;95417.25;5039546;28;20202;-71
2022/04/14 07:57:25;;;;;;;10.38;7.63;;;;;;;10.62;44.81;95410.50;5056458;28;20206;-71
2022/04/14 07:59:52;;;;;;;8.27;7.30;;;;;;;10.74;44.79;95407.72;5055762;28;20186;-71
2022/04/14 08:02:20;;;;;;;12.25;7.75;;;;;;;10.85;44.01;95404.16;5055941;28;20233;-71
2022/04/14 08:04:47;;;;;;;8.18;7.38;;;;;;;10.97;44.63;95408.06;5065546;28;20236;-71
2022/04/14 08:07:14;;;;;;;8.60;7.80;;;;;;;11.07;44.16;95413.09;5059184;28;20235;-71
2022/04/14 08:09:41;;;;;;;9.85;7.68;;;;;;;11.19;44.90;95398.47;5076464;28;20215;-71
2022/04/14 08:12:10;;;;;;;10.93;7.78;;;;;;;11.46;44.52;95405.19;5076551;28;20211;-71
2022/04/14 08:14:36;;;;;;;9.15;8.13;;;;;;;11.57;43.09;95401.56;5058764;28;20204;-71
2022/04/14 08:17:04;;;;;;;8.10;7.15;;;;;;;11.62;42.52;95397.78;5058961;28;20311;-71
2022/04/14 08:19:34;;;;;;;9.27;8.38;;;;;;;11.74;43.61;95396.91;5059216;28;20197;-71
2022/04/14 08:22:01;;;;;;;10.10;9.10;;;;;;;11.96;46.02;95392.78;5058889;28;20204;-71
2022/04/14 08:24:28;;;;;;;10.35;8.25;;;;;;;12.17;45.55;95387.03;5058936;28;20232;-71
2022/04/14 08:26:55;;;;;;;8.80;7.90;;;;;;;12.24;42.76;95395.53;5076045;28;20227;-71
2022/04/14 08:29:22;;;;;;;9.15;8.20;;;;;;;12.21;42.32;95387.94;5076003;28;20185;-71
2022/04/14 08:31:50;;;;;;;13.15;11.70;;;;;;;12.38;42.00;95393.13;5059044;28;20190;-71
2022/04/14 08:34:17;;;;;;;12.35;11.02;;;;;;;12.52;43.28;95395.41;5076159;28;20185;-71
2022/04/14 08:36:45;;;;;;;11.38;9.15;;;;;;;12.64;42.42;95392.56;5076181;28;20231;-71
2022/04/14 08:39:12;;;;;;;10.00;9.00;;;;;;;12.67;42.58;95393.78;5076066;28;20189;-71
2022/04/14 08:41:41;;;;;;;9.93;8.77;;;;;;;12.83;41.00;95397.38;5058948;28;20225;-71
2022/04/14 08:44:09;;;;;;;10.00;8.48;;;;;;;12.82;40.12;95392.16;5075896;28;20188;-71
2022/04/14 08:46:38;;;;;;;9.80;8.80;;;;;;;12.95;41.18;95388.16;5075743;28;20181;-71
2022/04/14 08:49:05;;;;;;;13.48;9.18;;;;;;;13.10;39.67;95383.72;5076026;28;20196;-71
2022/04/14 08:51:35;;;;;;;9.52;8.52;;;;;;;13.09;39.99;95376.59;5075943;28;20269;-71
2022/04/14 08:54:05;;;;;;;10.25;7.57;;;;;;;13.13;39.85;95385.78;5075837;28;20177;-71
2022/04/14 08:56:32;;;;;;;9.35;8.45;;;;;;;13.16;40.21;95373.97;5075481;28;20205;-71
2022/04/14 08:59:00;;;;;;;11.40;8.30;;;;;;;13.29;40.56;95377.44;5057895;28;20205;-71
2022/04/14 09:01:28;;;;;;;10.02;8.27;;;;;;;13.44;39.46;95374.63;5057963;28;20235;-71
2022/04/14 09:03:57;;;;;;;8.13;7.32;;;;;;;13.66;40.30;95364.00;5075396;28;20220;-71
2022/04/14 09:06:27;;;;;;;8.10;7.35;;;;;;;13.80;38.39;95371.75;5058236;28;20197;-71
2022/04/14 09:08:54;;;;;;;9.25;7.13;;;;;;;13.90;37.93;95368.41;5075189;28;20224;-71
2022/04/14 09:11:22;;;;;;;11.05;9.45;;;;;;;13.97;37.81;95369.34;5057813;28;20193;-71
2022/04/14 09:13:49;;;;;;;7.20;6.53;;;;;;;14.06;37.23;95365.53;5075627;28;20220;-71
2022/04/14 09:16:16;;;;;;;7.38;6.68;;;;;;;14.12;37.66;95353.75;5075407;28;20200;-71
2022/04/14 09:18:45;;;;;;;8.15;6.53;;;;;;;14.28;38.94;95352.84;5075373;28;20208;-71
2022/04/14 09:21:13;;;;;;;7.97;6.07;;;;;;;14.35;37.94;95352.97;5057903;28;20193;-71
2022/04/14 09:23:40;;;;;;;8.73;6.70;;;;;;;14.49;36.65;95349.63;5057947;28;20623;-71
2022/04/14 09:26:12;;;;;;;9.65;6.03;;;;;;;14.45;36.04;95349.56;5058029;28;20189;-71
2022/04/14 09:28:42;;;;;;;6.50;5.80;;;;;;;14.44;34.41;95348.75;5057637;28;20283;-71
2022/04/14 09:31:10;;;;;;;7.80;6.25;;;;;;;14.56;36.90;95349.78;5058242;28;20204;-71
2022/04/14 09:33:50;;;;;;;7.68;5.65;;;;;;;14.57;36.42;95346.66;5075185;28;20280;-70
2022/04/14 09:36:18;;;;;;;5.68;4.65;;;;;;;14.61;34.95;95347.50;5057292;28;20548;-71
2022/04/14 09:38:56;;;;;;;6.05;5.00;;;;;;;14.75;35.66;95340.56;5057544;28;20295;-71
2022/04/14 09:41:34;;;;;;;6.75;4.05;;;;;;;14.79;33.04;95341.44;5075537;28;20182;-71
2022/04/14 09:44:04;;;;;;;5.68;4.32;;;;;;;14.83;33.60;95333.94;5074930;28;20181;-71
2022/04/14 09:46:31;;;;;;;5.72;4.47;;;;;;;14.97;34.58;95336.94;5075353;28;20197;-71
2022/04/14 09:49:09;;;;;;;6.65;4.68;;;;;;;15.20;35.08;95336.84;5074771;28;20224;-71
2022/04/14 09:51:36;;;;;;;7.53;4.90;;;;;;;15.35;34.87;95329.50;5057184;28;20206;-71
2022/04/14 09:54:11;;;;;;;5.53;4.53;;;;;;;15.47;33.59;95326.50;5074798;28;20302;-71
2022/04/14 09:56:41;;;;;;;5.20;4.72;;;;;;;15.57;34.80;95316.69;5074896;28;20211;-71
2022/04/14 09:59:12;;;;;;;5.80;4.63;;;;;;;15.69;34.19;95319.25;5057351;28;20205;-71
2022/04/14 10:01:39;;;;;;;5.57;4.47;;;;;;;15.82;33.86;95317.78;5067373;28;20189;-71
2022/04/14 10:04:06;;;;;;;6.20;4.68;;;;;;;15.94;34.97;95315.91;5075046;28;20240;-71
2022/04/14 10:06:33;;;;;;;6.20;4.40;;;;;;;15.98;31.78;95308.44;5074988;28;20181;-71
2022/04/14 10:08:59;;;;;;;4.95;4.20;;;;;;;16.06;33.18;95310.91;5075182;28;20191;-71
2022/04/14 10:11:29;;;;;;;5.63;4.15;;;;;;;16.08;33.70;95304.94;5074893;28;20271;-71
2022/04/14 10:14:11;;;;;;;5.43;4.53;;;;;;;16.14;32.17;95306.19;5075013;28;20185;-71
2022/04/14 10:16:39;;;;;;;5.70;4.72;;;;;;;16.15;32.90;95309.78;5057016;28;20224;-71
2022/04/14 10:19:07;;;;;;;4.78;4.28;;;;;;;16.18;31.83;95306.22;5057658;28;20197;-71
2022/04/14 10:21:36;;;;;;;5.63;4.90;;;;;;;16.16;31.43;95303.03;5057519;28;20200;-70
2022/04/14 10:24:03;;;;;;;6.10;4.80;;;;;;;16.33;34.51;95305.97;5078465;28;20228;-70
2022/04/14 10:26:30;;;;;;;7.15;4.85;;;;;;;16.55;33.95;95309.72;5078708;28;20196;-70
2022/04/14 10:28:57;;;;;;;7.28;4.80;;;;;;;16.60;32.00;95305.81;5078304;28;20174;-71
2022/04/14 10:31:25;;;;;;;5.38;4.88;;;;;;;16.68;32.23;95296.31;5078670;28;20187;-70
2022/04/14 10:33:53;;;;;;;5.95;4.80;;;;;;;16.76;31.62;95302.75;5078652;28;20307;-70
2022/04/14 10:36:20;;;;;;;6.55;5.43;;;;;;;16.84;31.64;95293.25;5060972;28;20197;-71
2022/04/14 10:38:47;;;;;;;5.95;4.93;;;;;;;16.97;32.38;95297.34;5078015;28;20619;-71
2022/04/14 10:41:17;;;;;;;7.72;5.03;;;;;;;16.97;32.33;95299.31;5078307;28;20190;-71
2022/04/14 10:43:46;;;;;;;7.05;4.97;;;;;;;16.88;30.13;95298.84;5078001;28;20189;-71
2022/04/14 10:46:15;;;;;;;8.43;4.90;;;;;;;16.98;30.52;95287.78;5060687;28;20300;-71
2022/04/14 10:48:45;;;;;;;5.35;4.80;;;;;;;17.15;30.75;95291.06;5060370;28;20221;-71
2022/04/14 10:51:20;;;;;;;7.20;4.82;;;;;;;17.19;31.19;95294.69;5060374;28;20197;-70
2022/04/14 10:53:50;;;;;;;5.50;4.72;;;;;;;17.17;29.14;95295.06;5077539;28;20568;-70
2022/04/14 10:56:47;;;;;;;5.70;4.32;;;;;;;17.28;29.99;95297.88;5077791;28;20201;-70
2022/04/14 10:59:15;;;;;;;6.35;5.00;;;;;;;17.30;30.29;95290.75;5066349;28;20223;-70
2022/04/14 11:02:04;;;;;;;5.20;4.05;;;;;;;17.49;29.45;95289.63;5078146;28;20193;-70
2022/04/14 11:04:36;;;;;;;5.40;4.20;;;;;;;17.71;29.34;95298.88;5060443;28;20256;-70
2022/04/14 11:07:09;;;;;;;5.53;4.38;;;;;;;17.71;29.34;95290.50;5077860;28;20267;-70
2022/04/14 11:09:50;;;;;;;5.78;4.50;;;;;;;17.84;28.57;95285.41;5060484;28;20193;-70
2022/04/14 11:12:19;;;;;;;5.55;4.88;;;;;;;18.01;27.76;95295.00;5077976;28;20220;-70
2022/04/14 11:14:48;;;;;;;5.80;4.63;;;;;;;18.05;28.11;95287.44;5060260;28;20214;-70
2022/04/14 11:18:00;;;;;;;5.55;4.60;;;;;;;18.14;30.52;95289.84;5060612;28;20267;-70
2022/04/14 11:20:56;;;;;;;5.40;4.68;;;;;;;18.19;28.95;95278.28;5077973;28;20181;-70
2022/04/14 11:23:26;;;;;;;5.25;4.50;;;;;;;18.21;27.30;95276.69;5077691;28;20640;-71
2022/04/14 11:25:55;;;;;;;5.57;5.00;;;;;;;18.34;28.34;95276.28;5077780;28;20193;-70
2022/04/14 11:28:25;;;;;;;7.93;5.20;;;;;;;18.29;26.83;95278.28;5076931;28;20240;-70
2022/04/14 11:30:54;;;;;;;6.05;5.32;;;;;;;18.35;27.27;95275.13;5060213;28;20220;-70
2022/04/14 11:33:27;;;;;;;7.13;5.22;;;;;;;18.46;28.30;95279.50;5059771;28;20682;-70
2022/04/14 11:36:08;;;;;;;6.43;4.65;;;;;;;18.58;29.46;95278.28;5059146;28;20205;-70
2022/04/14 11:38:56;;;;;;;5.93;4.80;;;;;;;18.56;29.12;95274.31;5059946;28;20205;-71
2022/04/14 11:41:41;;;;;;;6.75;4.80;;;;;;;18.59;28.02;95273.50;5060078;28;20254;-70